sensor_id;sensor_type;location;lat;lon;timestamp;temperature;humidity
28520;DHT22;15732;48.534;20.382;2022-09-13T00:00:17;12.90;99.90
28520;DHT22;15732;48.534;20.382;2022-09-13T00:02:44;12.90;99.90
28520;DHT22;15732;48.534;20.382;2022-09-13T00:05:11;13.00;99.90
28520;DHT22;15732;48.534;20.382;2022-09-13T00:07:39;12.90;99.90
28520;DHT22;15732;48.534;20.382;2022-09-13T00:10:06;12.90;99.90
28520;DHT22;15732;48.534;20.382;2022-09-13T00:12:35;12.90;99.90
28520;DHT22;15732;48.534;20.382;2022-09-13T00:15:02;12.90;99.90
28520;DHT22;15732;48.534;20.382;2022-09-13T00:17:30;12.90;99.90
28520;DHT22;15732;48.534;20.382;2022-09-13T00:19:58;12.80;99.90
28520;DHT22;15732;48.534;20.382;2022-09-13T00:22:26;12.70;99.90
28520;DHT22;15732;48.534;20.382;2022-09-13T00:24:53;12.60;99.90
28520;DHT22;15732;48.534;20.382;2022-09-13T00:27:20;12.50;99.90
28520;DHT22;15732;48.534;20.382;2022-09-13T00:29:48;12.50;99.90
28520;DHT22;15732;48.534;20.382;2022-09-13T00:32:19;12.40;99.90
28520;DHT22;15732;48.534;20.382;2022-09-13T00:34:47;12.30;99.90
28520;DHT22;15732;48.534;20.382;2022-09-13T00:37:18;12.30;99.90
28520;DHT22;15732;48.534;20.382;2022-09-13T00:39:45;12.30;99.90
28520;DHT22;15732;48.534;20.382;2022-09-13T00:42:13;12.30;99.90
28520;DHT22;15732;48.534;20.382;2022-09-13T00:47:19;12.50;99.90
28520;DHT22;15732;48.534;20.382;2022-09-13T00:49:48;12.50;99.90
28520;DHT22;15732;48.534;20.382;2022-09-13T00:52:19;12.50;99.90
28520;DHT22;15732;48.534;20.382;2022-09-13T00:54:55;12.60;99.90
28520;DHT22;15732;48.534;20.382;2022-09-13T00:57:28;12.60;99.90
28520;DHT22;15732;48.534;20.382;2022-09-13T01:02:40;12.50;99.90
28520;DHT22;15732;48.534;20.382;2022-09-13T01:05:14;12.40;99.90
28520;DHT22;15732;48.534;20.382;2022-09-13T01:07:47;12.30;99.90
28520;DHT22;15732;48.534;20.382;2022-09-13T01:10:14;12.20;99.90
28520;DHT22;15732;48.534;20.382;2022-09-13T01:15:14;12.10;99.90
28520;DHT22;15732;48.534;20.382;2022-09-13T01:17:45;12.10;99.90
28520;DHT22;15732;48.534;20.382;2022-09-13T01:20:13;11.80;99.90
28520;DHT22;15732;48.534;20.382;2022-09-13T01:34:08;11.90;99.90
28520;DHT22;15732;48.534;20.382;2022-09-13T01:42:38;11.90;99.90
28520;DHT22;15732;48.534;20.382;2022-09-13T01:48:10;11.90;99.90
28520;DHT22;15732;48.534;20.382;2022-09-13T01:50:52;11.80;99.90
28520;DHT22;15732;48.534;20.382;2022-09-13T01:53:43;11.80;99.90
28520;DHT22;15732;48.534;20.382;2022-09-13T02:01:30;11.50;99.90
28520;DHT22;15732;48.534;20.382;2022-09-13T02:04:08;11.60;99.90
28520;DHT22;15732;48.534;20.382;2022-09-13T02:06:41;11.40;99.90
28520;DHT22;15732;48.534;20.382;2022-09-13T02:09:17;11.30;99.90
28520;DHT22;15732;48.534;20.382;2022-09-13T02:11:49;11.20;99.90
28520;DHT22;15732;48.534;20.382;2022-09-13T02:14:29;11.10;99.90
28520;DHT22;15732;48.534;20.382;2022-09-13T02:22:33;10.70;99.90
28520;DHT22;15732;48.534;20.382;2022-09-13T02:25:11;10.20;99.90
28520;DHT22;15732;48.534;20.382;2022-09-13T02:27:57;10.10;99.90
28520;DHT22;15732;48.534;20.382;2022-09-13T02:30:31;10.30;99.90
28520;DHT22;15732;48.534;20.382;2022-09-13T02:33:10;10.30;99.90
28520;DHT22;15732;48.534;20.382;2022-09-13T02:35:51;10.30;99.90
28520;DHT22;15732;48.534;20.382;2022-09-13T02:41:34;10.40;99.90
28520;DHT22;15732;48.534;20.382;2022-09-13T02:44:25;10.30;99.90
28520;DHT22;15732;48.534;20.382;2022-09-13T02:52:11;10.30;99.90
28520;DHT22;15732;48.534;20.382;2022-09-13T02:58:01;10.30;99.90
28520;DHT22;15732;48.534;20.382;2022-09-13T03:00:32;10.30;99.90
28520;DHT22;15732;48.534;20.382;2022-09-13T03:03:02;10.30;99.90
28520;DHT22;15732;48.534;20.382;2022-09-13T03:05:31;10.20;99.90
28520;DHT22;15732;48.534;20.382;2022-09-13T03:07:59;10.20;99.90
28520;DHT22;15732;48.534;20.382;2022-09-13T03:10:34;10.20;99.90
28520;DHT22;15732;48.534;20.382;2022-09-13T03:13:21;10.20;99.90
28520;DHT22;15732;48.534;20.382;2022-09-13T03:26:26;10.40;99.90
28520;DHT22;15732;48.534;20.382;2022-09-13T03:29:24;10.50;99.90
28520;DHT22;15732;48.534;20.382;2022-09-13T03:32:04;10.50;99.90
28520;DHT22;15732;48.534;20.382;2022-09-13T03:37:37;10.40;99.90
28520;DHT22;15732;48.534;20.382;2022-09-13T03:45:51;10.60;99.90
28520;DHT22;15732;48.534;20.382;2022-09-13T03:48:20;10.70;99.90
28520;DHT22;15732;48.534;20.382;2022-09-13T03:50:47;10.70;99.90
28520;DHT22;15732;48.534;20.382;2022-09-13T03:53:22;10.70;99.90
28520;DHT22;15732;48.534;20.382;2022-09-13T03:55:55;10.70;99.90
28520;DHT22;15732;48.534;20.382;2022-09-13T03:58:25;10.60;99.90
28520;DHT22;15732;48.534;20.382;2022-09-13T04:00:56;10.60;99.90
28520;DHT22;15732;48.534;20.382;2022-09-13T04:03:28;10.70;99.90
28520;DHT22;15732;48.534;20.382;2022-09-13T04:05:55;10.70;99.90
28520;DHT22;15732;48.534;20.382;2022-09-13T04:08:22;10.80;99.90
28520;DHT22;15732;48.534;20.382;2022-09-13T04:10:50;10.80;99.90
28520;DHT22;15732;48.534;20.382;2022-09-13T04:13:18;10.70;99.90
28520;DHT22;15732;48.534;20.382;2022-09-13T04:15:46;10.70;99.90
28520;DHT22;15732;48.534;20.382;2022-09-13T04:18:13;10.70;99.90
28520;DHT22;15732;48.534;20.382;2022-09-13T04:20:41;10.50;99.90
28520;DHT22;15732;48.534;20.382;2022-09-13T04:23:08;10.30;99.90
28520;DHT22;15732;48.534;20.382;2022-09-13T04:25:38;10.10;99.90
28520;DHT22;15732;48.534;20.382;2022-09-13T04:28:06;9.90;99.90
28520;DHT22;15732;48.534;20.382;2022-09-13T04:30:33;9.90;99.90
28520;DHT22;15732;48.534;20.382;2022-09-13T04:33:00;9.80;99.90
28520;DHT22;15732;48.534;20.382;2022-09-13T04:35:28;9.60;99.90
28520;DHT22;15732;48.534;20.382;2022-09-13T04:37:56;9.30;99.90
28520;DHT22;15732;48.534;20.382;2022-09-13T04:40:26;9.20;99.90
28520;DHT22;15732;48.534;20.382;2022-09-13T04:42:54;9.20;99.90
28520;DHT22;15732;48.534;20.382;2022-09-13T04:45:22;9.20;99.90
28520;DHT22;15732;48.534;20.382;2022-09-13T04:47:51;9.20;99.90
28520;DHT22;15732;48.534;20.382;2022-09-13T04:50:20;9.40;99.90
28520;DHT22;15732;48.534;20.382;2022-09-13T04:52:48;9.10;99.90
28520;DHT22;15732;48.534;20.382;2022-09-13T04:55:15;9.10;99.90
28520;DHT22;15732;48.534;20.382;2022-09-13T04:57:43;9.20;99.90
28520;DHT22;15732;48.534;20.382;2022-09-13T05:00:14;9.30;99.90
28520;DHT22;15732;48.534;20.382;2022-09-13T05:02:42;9.40;99.90
28520;DHT22;15732;48.534;20.382;2022-09-13T05:05:10;9.40;99.90
28520;DHT22;15732;48.534;20.382;2022-09-13T05:07:37;9.50;99.90
28520;DHT22;15732;48.534;20.382;2022-09-13T05:10:06;9.50;99.90
28520;DHT22;15732;48.534;20.382;2022-09-13T05:12:35;9.40;99.90
28520;DHT22;15732;48.534;20.382;2022-09-13T05:15:03;9.50;99.90
28520;DHT22;15732;48.534;20.382;2022-09-13T05:17:32;9.50;99.90
28520;DHT22;15732;48.534;20.382;2022-09-13T05:20:00;9.50;99.90
28520;DHT22;15732;48.534;20.382;2022-09-13T05:22:28;9.60;99.90
28520;DHT22;15732;48.534;20.382;2022-09-13T05:24:55;9.50;99.90
28520;DHT22;15732;48.534;20.382;2022-09-13T05:27:22;9.60;99.90
28520;DHT22;15732;48.534;20.382;2022-09-13T05:29:50;9.60;99.90
28520;DHT22;15732;48.534;20.382;2022-09-13T05:32:17;9.60;99.90
28520;DHT22;15732;48.534;20.382;2022-09-13T05:34:45;9.60;99.90
28520;DHT22;15732;48.534;20.382;2022-09-13T05:37:13;9.60;99.90
28520;DHT22;15732;48.534;20.382;2022-09-13T05:39:41;9.50;99.90
28520;DHT22;15732;48.534;20.382;2022-09-13T05:42:08;9.50;99.90
28520;DHT22;15732;48.534;20.382;2022-09-13T05:44:35;9.50;99.90
28520;DHT22;15732;48.534;20.382;2022-09-13T05:47:03;9.70;99.90
28520;DHT22;15732;48.534;20.382;2022-09-13T05:49:31;9.70;99.90
28520;DHT22;15732;48.534;20.382;2022-09-13T05:51:58;9.90;99.90
28520;DHT22;15732;48.534;20.382;2022-09-13T05:54:26;9.90;99.90
28520;DHT22;15732;48.534;20.382;2022-09-13T05:56:57;10.10;99.90
28520;DHT22;15732;48.534;20.382;2022-09-13T05:59:25;10.20;99.90
28520;DHT22;15732;48.534;20.382;2022-09-13T06:01:52;10.40;99.90
28520;DHT22;15732;48.534;20.382;2022-09-13T06:04:24;10.50;99.90
28520;DHT22;15732;48.534;20.382;2022-09-13T06:06:51;10.70;99.90
28520;DHT22;15732;48.534;20.382;2022-09-13T06:09:18;10.90;99.90
28520;DHT22;15732;48.534;20.382;2022-09-13T06:11:50;11.00;99.90
28520;DHT22;15732;48.534;20.382;2022-09-13T06:14:17;11.10;99.90
28520;DHT22;15732;48.534;20.382;2022-09-13T06:16:49;11.10;99.90
28520;DHT22;15732;48.534;20.382;2022-09-13T06:19:16;11.20;99.90
28520;DHT22;15732;48.534;20.382;2022-09-13T06:21:43;11.20;99.90
28520;DHT22;15732;48.534;20.382;2022-09-13T06:24:11;11.30;99.90
28520;DHT22;15732;48.534;20.382;2022-09-13T06:26:43;11.30;99.90
28520;DHT22;15732;48.534;20.382;2022-09-13T06:29:10;11.40;99.90
28520;DHT22;15732;48.534;20.382;2022-09-13T06:31:41;11.50;99.90
28520;DHT22;15732;48.534;20.382;2022-09-13T06:34:11;11.70;99.90
28520;DHT22;15732;48.534;20.382;2022-09-13T06:36:43;11.70;99.90
28520;DHT22;15732;48.534;20.382;2022-09-13T06:39:10;11.90;99.90
28520;DHT22;15732;48.534;20.382;2022-09-13T06:41:37;11.90;99.90
28520;DHT22;15732;48.534;20.382;2022-09-13T06:44:05;12.10;99.90
28520;DHT22;15732;48.534;20.382;2022-09-13T06:46:36;12.20;99.90
28520;DHT22;15732;48.534;20.382;2022-09-13T06:49:07;12.30;99.90
28520;DHT22;15732;48.534;20.382;2022-09-13T06:51:35;12.40;99.90
28520;DHT22;15732;48.534;20.382;2022-09-13T06:54:06;12.50;99.90
28520;DHT22;15732;48.534;20.382;2022-09-13T06:56:35;12.70;99.90
28520;DHT22;15732;48.534;20.382;2022-09-13T06:59:05;12.90;99.90
28520;DHT22;15732;48.534;20.382;2022-09-13T07:01:40;13.00;99.90
28520;DHT22;15732;48.534;20.382;2022-09-13T07:04:14;13.20;99.90
28520;DHT22;15732;48.534;20.382;2022-09-13T07:06:47;13.30;99.90
28520;DHT22;15732;48.534;20.382;2022-09-13T07:09:16;13.50;99.90
28520;DHT22;15732;48.534;20.382;2022-09-13T07:11:45;13.70;99.90
28520;DHT22;15732;48.534;20.382;2022-09-13T07:14:14;13.90;99.90
28520;DHT22;15732;48.534;20.382;2022-09-13T07:16:42;14.10;99.90
28520;DHT22;15732;48.534;20.382;2022-09-13T07:19:17;14.20;99.90
28520;DHT22;15732;48.534;20.382;2022-09-13T07:21:45;14.40;99.90
28520;DHT22;15732;48.534;20.382;2022-09-13T07:24:18;14.50;99.90
28520;DHT22;15732;48.534;20.382;2022-09-13T07:26:46;14.70;99.90
28520;DHT22;15732;48.534;20.382;2022-09-13T07:29:16;14.90;99.90
28520;DHT22;15732;48.534;20.382;2022-09-13T07:31:46;14.90;99.90
28520;DHT22;15732;48.534;20.382;2022-09-13T07:34:22;15.00;99.90
28520;DHT22;15732;48.534;20.382;2022-09-13T07:36:49;15.10;99.90
28520;DHT22;15732;48.534;20.382;2022-09-13T07:39:18;15.10;99.90
28520;DHT22;15732;48.534;20.382;2022-09-13T07:41:46;15.20;99.90
28520;DHT22;15732;48.534;20.382;2022-09-13T07:44:14;15.40;99.90
28520;DHT22;15732;48.534;20.382;2022-09-13T07:46:45;15.50;99.90
28520;DHT22;15732;48.534;20.382;2022-09-13T07:49:17;15.70;99.90
28520;DHT22;15732;48.534;20.382;2022-09-13T07:51:45;15.90;99.90
28520;DHT22;15732;48.534;20.382;2022-09-13T07:54:14;16.10;99.90
28520;DHT22;15732;48.534;20.382;2022-09-13T07:56:42;16.30;99.90
28520;DHT22;15732;48.534;20.382;2022-09-13T07:59:13;16.40;99.90
28520;DHT22;15732;48.534;20.382;2022-09-13T08:04:28;16.70;99.90
28520;DHT22;15732;48.534;20.382;2022-09-13T08:06:55;16.80;99.90
28520;DHT22;15732;48.534;20.382;2022-09-13T08:09:23;17.00;99.90
28520;DHT22;15732;48.534;20.382;2022-09-13T08:11:51;17.00;99.90
28520;DHT22;15732;48.534;20.382;2022-09-13T08:14:22;17.10;99.90
28520;DHT22;15732;48.534;20.382;2022-09-13T08:16:49;17.20;99.90
28520;DHT22;15732;48.534;20.382;2022-09-13T08:19:17;17.30;99.90
28520;DHT22;15732;48.534;20.382;2022-09-13T08:21:49;17.40;99.90
28520;DHT22;15732;48.534;20.382;2022-09-13T08:24:18;17.50;99.90
28520;DHT22;15732;48.534;20.382;2022-09-13T08:26:47;17.60;99.90
28520;DHT22;15732;48.534;20.382;2022-09-13T08:29:15;17.70;99.90
28520;DHT22;15732;48.534;20.382;2022-09-13T08:31:42;17.80;99.90
28520;DHT22;15732;48.534;20.382;2022-09-13T08:34:14;17.90;99.90
28520;DHT22;15732;48.534;20.382;2022-09-13T08:36:41;17.90;99.90
28520;DHT22;15732;48.534;20.382;2022-09-13T08:39:09;17.90;99.90
28520;DHT22;15732;48.534;20.382;2022-09-13T08:49:42;18.20;99.90
28520;DHT22;15732;48.534;20.382;2022-09-13T08:52:19;18.20;99.90
28520;DHT22;15732;48.534;20.382;2022-09-13T08:54:49;18.30;99.90
28520;DHT22;15732;48.534;20.382;2022-09-13T08:57:27;18.30;99.90
28520;DHT22;15732;48.534;20.382;2022-09-13T09:00:21;18.30;99.90
28520;DHT22;15732;48.534;20.382;2022-09-13T09:05:31;18.40;99.90
28520;DHT22;15732;48.534;20.382;2022-09-13T09:07:59;18.40;99.90
28520;DHT22;15732;48.534;20.382;2022-09-13T09:10:48;18.40;99.90
28520;DHT22;15732;48.534;20.382;2022-09-13T09:15:51;18.50;99.90
28520;DHT22;15732;48.534;20.382;2022-09-13T09:18:21;18.50;99.90
28520;DHT22;15732;48.534;20.382;2022-09-13T09:20:55;18.60;99.90
28520;DHT22;15732;48.534;20.382;2022-09-13T09:23:40;18.60;99.90
28520;DHT22;15732;48.534;20.382;2022-09-13T09:26:29;18.60;99.90
28520;DHT22;15732;48.534;20.382;2022-09-13T09:31:39;18.70;99.90
28520;DHT22;15732;48.534;20.382;2022-09-13T09:34:23;18.70;99.90
28520;DHT22;15732;48.534;20.382;2022-09-13T09:37:27;18.70;99.90
28520;DHT22;15732;48.534;20.382;2022-09-13T09:40:05;18.70;99.90
28520;DHT22;15732;48.534;20.382;2022-09-13T09:42:44;18.70;99.90
28520;DHT22;15732;48.534;20.382;2022-09-13T09:45:32;18.70;99.90
28520;DHT22;15732;48.534;20.382;2022-09-13T09:48:01;18.70;99.90
28520;DHT22;15732;48.534;20.382;2022-09-13T09:50:43;18.70;99.90
28520;DHT22;15732;48.534;20.382;2022-09-13T09:53:21;18.70;99.90
28520;DHT22;15732;48.534;20.382;2022-09-13T09:56:03;18.70;99.90
28520;DHT22;15732;48.534;20.382;2022-09-13T09:58:40;18.80;99.90
28520;DHT22;15732;48.534;20.382;2022-09-13T10:01:34;18.80;99.90
28520;DHT22;15732;48.534;20.382;2022-09-13T10:04:21;18.80;99.90
28520;DHT22;15732;48.534;20.382;2022-09-13T10:07:29;18.90;99.90
28520;DHT22;15732;48.534;20.382;2022-09-13T10:10:05;18.90;99.90
28520;DHT22;15732;48.534;20.382;2022-09-13T10:12:35;19.00;99.90
28520;DHT22;15732;48.534;20.382;2022-09-13T10:15:16;19.10;99.90
28520;DHT22;15732;48.534;20.382;2022-09-13T10:18:04;19.10;99.90
28520;DHT22;15732;48.534;20.382;2022-09-13T10:20:32;19.10;99.90
28520;DHT22;15732;48.534;20.382;2022-09-13T10:25:37;19.20;99.90
28520;DHT22;15732;48.534;20.382;2022-09-13T10:28:09;19.20;99.90
28520;DHT22;15732;48.534;20.382;2022-09-13T10:30:42;19.30;99.90
28520;DHT22;15732;48.534;20.382;2022-09-13T10:33:40;19.30;99.90
28520;DHT22;15732;48.534;20.382;2022-09-13T10:36:20;19.40;99.90
28520;DHT22;15732;48.534;20.382;2022-09-13T10:41:35;19.40;99.90
28520;DHT22;15732;48.534;20.382;2022-09-13T10:47:02;19.40;99.90
28520;DHT22;15732;48.534;20.382;2022-09-13T10:49:47;19.40;99.90
28520;DHT22;15732;48.534;20.382;2022-09-13T10:52:27;19.40;99.90
28520;DHT22;15732;48.534;20.382;2022-09-13T10:57:54;19.40;99.90
28520;DHT22;15732;48.534;20.382;2022-09-13T11:11:02;19.40;99.90
28520;DHT22;15732;48.534;20.382;2022-09-13T11:19:53;19.40;99.90
28520;DHT22;15732;48.534;20.382;2022-09-13T11:33:16;19.50;99.90
28520;DHT22;15732;48.534;20.382;2022-09-13T11:49:01;19.40;99.90
28520;DHT22;15732;48.534;20.382;2022-09-13T11:54:33;19.50;99.90
28520;DHT22;15732;48.534;20.382;2022-09-13T11:57:11;19.50;99.90
28520;DHT22;15732;48.534;20.382;2022-09-13T11:59:53;19.50;99.90
28520;DHT22;15732;48.534;20.382;2022-09-13T12:04:58;19.50;99.90
28520;DHT22;15732;48.534;20.382;2022-09-13T12:07:37;19.60;99.90
28520;DHT22;15732;48.534;20.382;2022-09-13T12:10:23;19.60;99.90
28520;DHT22;15732;48.534;20.382;2022-09-13T12:12:58;19.60;99.90
28520;DHT22;15732;48.534;20.382;2022-09-13T12:15:37;19.60;99.90
28520;DHT22;15732;48.534;20.382;2022-09-13T12:18:18;19.60;99.90
28520;DHT22;15732;48.534;20.382;2022-09-13T12:20:47;19.60;99.90
28520;DHT22;15732;48.534;20.382;2022-09-13T12:23:42;19.60;99.90
28520;DHT22;15732;48.534;20.382;2022-09-13T12:26:42;19.70;99.90
28520;DHT22;15732;48.534;20.382;2022-09-13T12:29:30;19.60;99.90
28520;DHT22;15732;48.534;20.382;2022-09-13T12:32:06;19.60;99.90
28520;DHT22;15732;48.534;20.382;2022-09-13T12:59:27;19.80;99.90
28520;DHT22;15732;48.534;20.382;2022-09-13T13:02:21;19.80;99.90
28520;DHT22;15732;48.534;20.382;2022-09-13T13:04:58;19.80;99.90
28520;DHT22;15732;48.534;20.382;2022-09-13T13:07:28;19.80;99.90
28520;DHT22;15732;48.534;20.382;2022-09-13T13:09:57;19.80;99.90
28520;DHT22;15732;48.534;20.382;2022-09-13T13:12:33;19.80;99.90
28520;DHT22;15732;48.534;20.382;2022-09-13T13:17:51;19.80;99.90
28520;DHT22;15732;48.534;20.382;2022-09-13T13:23:38;19.80;99.90
28520;DHT22;15732;48.534;20.382;2022-09-13T13:29:17;19.80;99.90
28520;DHT22;15732;48.534;20.382;2022-09-13T13:34:30;19.80;99.90
28520;DHT22;15732;48.534;20.382;2022-09-13T13:37:20;19.80;99.90
28520;DHT22;15732;48.534;20.382;2022-09-13T13:40:21;19.80;99.90
28520;DHT22;15732;48.534;20.382;2022-09-13T13:42:48;19.80;99.90
28520;DHT22;15732;48.534;20.382;2022-09-13T13:45:20;19.90;99.90
28520;DHT22;15732;48.534;20.382;2022-09-13T13:48:35;19.90;99.90
28520;DHT22;15732;48.534;20.382;2022-09-13T13:53:38;19.90;99.90
28520;DHT22;15732;48.534;20.382;2022-09-13T13:56:32;20.00;99.90
28520;DHT22;15732;48.534;20.382;2022-09-13T13:59:08;20.00;99.90
28520;DHT22;15732;48.534;20.382;2022-09-13T14:01:45;20.00;99.90
28520;DHT22;15732;48.534;20.382;2022-09-13T14:07:00;20.00;99.90
28520;DHT22;15732;48.534;20.382;2022-09-13T14:10:04;20.10;99.90
28520;DHT22;15732;48.534;20.382;2022-09-13T14:21:35;20.10;99.90
28520;DHT22;15732;48.534;20.382;2022-09-13T14:26:39;20.10;99.90
28520;DHT22;15732;48.534;20.382;2022-09-13T14:29:08;20.10;99.90
28520;DHT22;15732;48.534;20.382;2022-09-13T14:31:35;20.10;99.90
28520;DHT22;15732;48.534;20.382;2022-09-13T14:34:03;20.20;99.90
28520;DHT22;15732;48.534;20.382;2022-09-13T14:36:30;20.10;99.90
28520;DHT22;15732;48.534;20.382;2022-09-13T14:38:59;20.10;99.90
28520;DHT22;15732;48.534;20.382;2022-09-13T14:41:48;20.20;99.90
28520;DHT22;15732;48.534;20.382;2022-09-13T14:44:26;20.10;99.90
28520;DHT22;15732;48.534;20.382;2022-09-13T14:47:06;20.20;99.90
28520;DHT22;15732;48.534;20.382;2022-09-13T14:49:43;20.10;99.90
28520;DHT22;15732;48.534;20.382;2022-09-13T14:52:31;20.10;99.90
28520;DHT22;15732;48.534;20.382;2022-09-13T14:55:13;20.10;99.90
28520;DHT22;15732;48.534;20.382;2022-09-13T14:57:45;20.10;99.90
28520;DHT22;15732;48.534;20.382;2022-09-13T15:00:20;20.10;99.90
28520;DHT22;15732;48.534;20.382;2022-09-13T15:02:53;20.10;99.90
28520;DHT22;15732;48.534;20.382;2022-09-13T15:05:31;20.10;99.90
28520;DHT22;15732;48.534;20.382;2022-09-13T15:11:03;20.10;99.90
28520;DHT22;15732;48.534;20.382;2022-09-13T15:13:31;20.10;99.90
28520;DHT22;15732;48.534;20.382;2022-09-13T15:15:59;20.00;99.90
28520;DHT22;15732;48.534;20.382;2022-09-13T15:18:30;20.00;99.90
28520;DHT22;15732;48.534;20.382;2022-09-13T15:21:02;20.00;99.90
28520;DHT22;15732;48.534;20.382;2022-09-13T15:23:35;20.00;99.90
28520;DHT22;15732;48.534;20.382;2022-09-13T15:28:50;20.00;99.90
28520;DHT22;15732;48.534;20.382;2022-09-13T15:31:21;19.90;99.90
28520;DHT22;15732;48.534;20.382;2022-09-13T15:34:30;19.90;99.90
28520;DHT22;15732;48.534;20.382;2022-09-13T15:39:27;19.90;99.90
28520;DHT22;15732;48.534;20.382;2022-09-13T15:41:59;19.90;99.90
28520;DHT22;15732;48.534;20.382;2022-09-13T15:44:49;19.90;99.90
28520;DHT22;15732;48.534;20.382;2022-09-13T15:47:56;19.90;99.90
28520;DHT22;15732;48.534;20.382;2022-09-13T15:53:52;19.90;99.90
28520;DHT22;15732;48.534;20.382;2022-09-13T15:56:58;19.80;99.90
28520;DHT22;15732;48.534;20.382;2022-09-13T15:59:45;19.80;99.90
28520;DHT22;15732;48.534;20.382;2022-09-13T16:02:22;19.80;99.90
28520;DHT22;15732;48.534;20.382;2022-09-13T16:04:51;19.80;99.90
28520;DHT22;15732;48.534;20.382;2022-09-13T16:07:18;19.70;99.90
28520;DHT22;15732;48.534;20.382;2022-09-13T16:10:15;19.70;99.90
28520;DHT22;15732;48.534;20.382;2022-09-13T16:12:42;19.70;99.90
28520;DHT22;15732;48.534;20.382;2022-09-13T16:15:09;19.70;99.90
28520;DHT22;15732;48.534;20.382;2022-09-13T16:18:20;19.70;99.90
28520;DHT22;15732;48.534;20.382;2022-09-13T16:21:26;19.60;99.90
28520;DHT22;15732;48.534;20.382;2022-09-13T16:24:33;19.60;99.90
28520;DHT22;15732;48.534;20.382;2022-09-13T16:27:44;19.50;99.90
28520;DHT22;15732;48.534;20.382;2022-09-13T16:30:14;19.60;99.90
28520;DHT22;15732;48.534;20.382;2022-09-13T16:32:41;19.50;99.90
28520;DHT22;15732;48.534;20.382;2022-09-13T16:35:09;19.50;99.90
28520;DHT22;15732;48.534;20.382;2022-09-13T16:37:55;19.50;99.90
28520;DHT22;15732;48.534;20.382;2022-09-13T16:40:22;19.50;99.90
28520;DHT22;15732;48.534;20.382;2022-09-13T16:42:53;19.50;99.90
28520;DHT22;15732;48.534;20.382;2022-09-13T16:45:20;19.40;99.90
28520;DHT22;15732;48.534;20.382;2022-09-13T16:47:58;19.40;99.90
28520;DHT22;15732;48.534;20.382;2022-09-13T16:50:29;19.30;99.90
28520;DHT22;15732;48.534;20.382;2022-09-13T16:52:57;19.30;99.90
28520;DHT22;15732;48.534;20.382;2022-09-13T16:55:24;19.30;99.90
28520;DHT22;15732;48.534;20.382;2022-09-13T16:57:56;19.20;99.90
28520;DHT22;15732;48.534;20.382;2022-09-13T17:00:23;19.10;99.90
28520;DHT22;15732;48.534;20.382;2022-09-13T17:02:54;19.10;99.90
28520;DHT22;15732;48.534;20.382;2022-09-13T17:05:22;19.00;99.90
28520;DHT22;15732;48.534;20.382;2022-09-13T17:07:54;19.00;99.90
28520;DHT22;15732;48.534;20.382;2022-09-13T17:10:21;18.90;99.90
28520;DHT22;15732;48.534;20.382;2022-09-13T17:12:53;18.90;99.90
28520;DHT22;15732;48.534;20.382;2022-09-13T17:15:20;18.90;99.90
28520;DHT22;15732;48.534;20.382;2022-09-13T17:17:51;18.90;99.90
28520;DHT22;15732;48.534;20.382;2022-09-13T17:20:23;18.90;99.90
28520;DHT22;15732;48.534;20.382;2022-09-13T17:22:50;18.90;99.90
28520;DHT22;15732;48.534;20.382;2022-09-13T17:25:17;18.80;99.90
28520;DHT22;15732;48.534;20.382;2022-09-13T17:27:46;18.80;99.90
28520;DHT22;15732;48.534;20.382;2022-09-13T17:30:14;18.70;99.90
28520;DHT22;15732;48.534;20.382;2022-09-13T17:32:41;18.70;99.90
28520;DHT22;15732;48.534;20.382;2022-09-13T17:35:09;18.60;99.90
28520;DHT22;15732;48.534;20.382;2022-09-13T17:37:40;18.60;99.90
28520;DHT22;15732;48.534;20.382;2022-09-13T17:40:09;18.60;99.90
28520;DHT22;15732;48.534;20.382;2022-09-13T17:42:36;18.60;99.90
28520;DHT22;15732;48.534;20.382;2022-09-13T17:45:04;18.60;99.90
28520;DHT22;15732;48.534;20.382;2022-09-13T17:47:32;18.60;99.90
28520;DHT22;15732;48.534;20.382;2022-09-13T17:50:00;18.60;99.90
28520;DHT22;15732;48.534;20.382;2022-09-13T17:52:27;18.50;99.90
28520;DHT22;15732;48.534;20.382;2022-09-13T17:54:55;18.50;99.90
28520;DHT22;15732;48.534;20.382;2022-09-13T17:57:27;18.50;99.90
28520;DHT22;15732;48.534;20.382;2022-09-13T17:59:54;18.50;99.90
28520;DHT22;15732;48.534;20.382;2022-09-13T18:02:21;18.50;99.90
28520;DHT22;15732;48.534;20.382;2022-09-13T18:04:55;18.40;99.90
28520;DHT22;15732;48.534;20.382;2022-09-13T18:07:23;18.40;99.90
28520;DHT22;15732;48.534;20.382;2022-09-13T18:09:54;18.40;99.90
28520;DHT22;15732;48.534;20.382;2022-09-13T18:12:22;18.40;99.90
28520;DHT22;15732;48.534;20.382;2022-09-13T18:14:49;18.40;99.90
28520;DHT22;15732;48.534;20.382;2022-09-13T18:17:20;18.40;99.90
28520;DHT22;15732;48.534;20.382;2022-09-13T18:19:48;18.30;99.90
28520;DHT22;15732;48.534;20.382;2022-09-13T18:22:20;18.30;99.90
28520;DHT22;15732;48.534;20.382;2022-09-13T18:24:47;18.30;99.90
28520;DHT22;15732;48.534;20.382;2022-09-13T18:27:15;18.30;99.90
28520;DHT22;15732;48.534;20.382;2022-09-13T18:29:42;18.20;99.90
28520;DHT22;15732;48.534;20.382;2022-09-13T18:32:09;18.20;99.90
28520;DHT22;15732;48.534;20.382;2022-09-13T18:34:37;18.20;99.90
28520;DHT22;15732;48.534;20.382;2022-09-13T18:37:04;18.10;99.90
28520;DHT22;15732;48.534;20.382;2022-09-13T18:39:32;18.10;99.90
28520;DHT22;15732;48.534;20.382;2022-09-13T18:42:04;18.10;99.90
28520;DHT22;15732;48.534;20.382;2022-09-13T18:44:32;18.00;99.90
28520;DHT22;15732;48.534;20.382;2022-09-13T18:46:59;18.00;99.90
28520;DHT22;15732;48.534;20.382;2022-09-13T18:49:28;18.00;99.90
28520;DHT22;15732;48.534;20.382;2022-09-13T18:51:56;18.00;99.90
28520;DHT22;15732;48.534;20.382;2022-09-13T18:54:24;18.00;99.90
28520;DHT22;15732;48.534;20.382;2022-09-13T18:56:52;17.90;99.90
28520;DHT22;15732;48.534;20.382;2022-09-13T18:59:19;17.90;99.90
28520;DHT22;15732;48.534;20.382;2022-09-13T19:01:47;17.90;99.90
28520;DHT22;15732;48.534;20.382;2022-09-13T19:04:16;17.90;99.90
28520;DHT22;15732;48.534;20.382;2022-09-13T19:06:51;17.90;99.90
28520;DHT22;15732;48.534;20.382;2022-09-13T19:09:18;17.90;99.90
28520;DHT22;15732;48.534;20.382;2022-09-13T19:11:48;17.80;99.90
28520;DHT22;15732;48.534;20.382;2022-09-13T19:14:20;17.80;99.90
28520;DHT22;15732;48.534;20.382;2022-09-13T19:16:48;17.80;99.90
28520;DHT22;15732;48.534;20.382;2022-09-13T19:19:16;17.80;99.90
28520;DHT22;15732;48.534;20.382;2022-09-13T19:21:43;17.80;99.90
28520;DHT22;15732;48.534;20.382;2022-09-13T19:24:10;17.70;99.90